sensor_id;sensor_type;location;lat;lon;timestamp;temperature;humidity
16404;DHT22;8311;50.158;8.642;2022-08-21T00:02:33;26.90;42.90
16404;DHT22;8311;50.158;8.642;2022-08-21T00:05:26;26.90;42.90
16404;DHT22;8311;50.158;8.642;2022-08-21T00:08:21;26.90;42.90
16404;DHT22;8311;50.158;8.642;2022-08-21T00:11:15;26.90;42.90
16404;DHT22;8311;50.158;8.642;2022-08-21T00:14:11;26.90;42.90
16404;DHT22;8311;50.158;8.642;2022-08-21T00:17:06;26.90;42.90
16404;DHT22;8311;50.158;8.642;2022-08-21T00:20:00;26.90;42.90
16404;DHT22;8311;50.158;8.642;2022-08-21T00:22:53;26.90;42.90
16404;DHT22;8311;50.158;8.642;2022-08-21T00:25:49;26.90;42.90
16404;DHT22;8311;50.158;8.642;2022-08-21T00:28:42;26.90;42.90
16404;DHT22;8311;50.158;8.642;2022-08-21T00:31:37;26.90;42.90
16404;DHT22;8311;50.158;8.642;2022-08-21T00:34:30;26.90;42.90
16404;DHT22;8311;50.158;8.642;2022-08-21T00:37:23;26.90;42.90
16404;DHT22;8311;50.158;8.642;2022-08-21T00:40:19;26.90;42.90
16404;DHT22;8311;50.158;8.642;2022-08-21T00:43:18;26.90;42.90
16404;DHT22;8311;50.158;8.642;2022-08-21T00:46:12;26.90;42.90
16404;DHT22;8311;50.158;8.642;2022-08-21T00:49:07;26.90;42.90
16404;DHT22;8311;50.158;8.642;2022-08-21T00:52:03;26.90;42.80
16404;DHT22;8311;50.158;8.642;2022-08-21T00:54:57;26.90;42.90
16404;DHT22;8311;50.158;8.642;2022-08-21T00:57:54;26.90;42.90
16404;DHT22;8311;50.158;8.642;2022-08-21T01:00:50;26.80;42.80
16404;DHT22;8311;50.158;8.642;2022-08-21T01:03:44;26.90;42.90
16404;DHT22;8311;50.158;8.642;2022-08-21T01:06:37;26.90;42.80
16404;DHT22;8311;50.158;8.642;2022-08-21T01:09:31;26.90;42.80
16404;DHT22;8311;50.158;8.642;2022-08-21T01:12:26;26.80;42.80
16404;DHT22;8311;50.158;8.642;2022-08-21T01:15:20;26.90;42.80
16404;DHT22;8311;50.158;8.642;2022-08-21T01:18:16;26.80;42.70
16404;DHT22;8311;50.158;8.642;2022-08-21T01:21:14;26.80;42.80
16404;DHT22;8311;50.158;8.642;2022-08-21T01:24:10;26.90;42.80
16404;DHT22;8311;50.158;8.642;2022-08-21T01:27:04;26.90;42.80
16404;DHT22;8311;50.158;8.642;2022-08-21T01:30:04;26.80;42.80
16404;DHT22;8311;50.158;8.642;2022-08-21T01:33:00;26.80;42.80
16404;DHT22;8311;50.158;8.642;2022-08-21T01:35:54;26.80;42.90
16404;DHT22;8311;50.158;8.642;2022-08-21T01:38:48;26.80;42.80
16404;DHT22;8311;50.158;8.642;2022-08-21T01:41:42;26.80;42.90
16404;DHT22;8311;50.158;8.642;2022-08-21T01:44:36;26.80;42.90
16404;DHT22;8311;50.158;8.642;2022-08-21T01:47:29;26.80;42.90
16404;DHT22;8311;50.158;8.642;2022-08-21T01:50:22;26.80;43.00
16404;DHT22;8311;50.158;8.642;2022-08-21T01:53:16;26.80;43.00
16404;DHT22;8311;50.158;8.642;2022-08-21T01:56:13;26.80;43.10
16404;DHT22;8311;50.158;8.642;2022-08-21T01:59:06;26.80;43.20
16404;DHT22;8311;50.158;8.642;2022-08-21T02:02:00;26.80;43.20
16404;DHT22;8311;50.158;8.642;2022-08-21T02:04:53;26.80;43.20
16404;DHT22;8311;50.158;8.642;2022-08-21T02:07:47;26.80;43.30
16404;DHT22;8311;50.158;8.642;2022-08-21T02:10:40;26.80;43.30
16404;DHT22;8311;50.158;8.642;2022-08-21T02:13:41;26.80;43.30
16404;DHT22;8311;50.158;8.642;2022-08-21T02:16:35;26.80;43.40
16404;DHT22;8311;50.158;8.642;2022-08-21T02:19:29;26.80;43.40
16404;DHT22;8311;50.158;8.642;2022-08-21T02:22:31;26.80;43.40
16404;DHT22;8311;50.158;8.642;2022-08-21T02:25:26;26.80;43.40
16404;DHT22;8311;50.158;8.642;2022-08-21T02:28:20;26.80;43.40
16404;DHT22;8311;50.158;8.642;2022-08-21T02:31:14;26.80;43.40
16404;DHT22;8311;50.158;8.642;2022-08-21T02:34:08;26.70;43.30
16404;DHT22;8311;50.158;8.642;2022-08-21T02:37:01;26.70;43.30
16404;DHT22;8311;50.158;8.642;2022-08-21T02:39:55;26.70;43.30
16404;DHT22;8311;50.158;8.642;2022-08-21T02:42:49;26.70;43.30
16404;DHT22;8311;50.158;8.642;2022-08-21T02:45:44;26.70;43.30
16404;DHT22;8311;50.158;8.642;2022-08-21T02:48:39;26.70;43.30
16404;DHT22;8311;50.158;8.642;2022-08-21T02:51:31;26.70;43.30
16404;DHT22;8311;50.158;8.642;2022-08-21T02:54:25;26.70;43.40
16404;DHT22;8311;50.158;8.642;2022-08-21T02:57:18;26.70;43.30
16404;DHT22;8311;50.158;8.642;2022-08-21T03:00:11;26.70;43.30
16404;DHT22;8311;50.158;8.642;2022-08-21T03:03:05;26.70;43.30
16404;DHT22;8311;50.158;8.642;2022-08-21T03:05:59;26.70;43.20
16404;DHT22;8311;50.158;8.642;2022-08-21T03:08:53;26.70;43.20
16404;DHT22;8311;50.158;8.642;2022-08-21T03:11:46;26.70;43.20
16404;DHT22;8311;50.158;8.642;2022-08-21T03:14:39;26.70;43.20
16404;DHT22;8311;50.158;8.642;2022-08-21T03:17:32;26.70;43.20
16404;DHT22;8311;50.158;8.642;2022-08-21T03:20:27;26.70;43.10
16404;DHT22;8311;50.158;8.642;2022-08-21T03:23:22;26.70;43.10
16404;DHT22;8311;50.158;8.642;2022-08-21T03:26:23;26.70;43.10
16404;DHT22;8311;50.158;8.642;2022-08-21T03:29:19;26.60;43.00
16404;DHT22;8311;50.158;8.642;2022-08-21T03:32:12;26.60;43.00
16404;DHT22;8311;50.158;8.642;2022-08-21T03:35:05;26.60;43.00
16404;DHT22;8311;50.158;8.642;2022-08-21T03:37:59;26.70;43.00
16404;DHT22;8311;50.158;8.642;2022-08-21T03:40:53;26.60;43.00
16404;DHT22;8311;50.158;8.642;2022-08-21T03:43:47;26.60;43.00
16404;DHT22;8311;50.158;8.642;2022-08-21T03:46:40;26.60;43.00
16404;DHT22;8311;50.158;8.642;2022-08-21T03:49:33;26.60;43.60
16404;DHT22;8311;50.158;8.642;2022-08-21T03:52:26;26.60;42.90
16404;DHT22;8311;50.158;8.642;2022-08-21T03:55:19;26.60;42.90
16404;DHT22;8311;50.158;8.642;2022-08-21T03:58:13;26.60;43.00
16404;DHT22;8311;50.158;8.642;2022-08-21T04:01:08;26.60;42.90
16404;DHT22;8311;50.158;8.642;2022-08-21T04:04:01;26.60;42.90
16404;DHT22;8311;50.158;8.642;2022-08-21T04:06:57;26.60;43.00
16404;DHT22;8311;50.158;8.642;2022-08-21T04:09:50;26.60;42.90
16404;DHT22;8311;50.158;8.642;2022-08-21T04:12:43;26.60;42.90
16404;DHT22;8311;50.158;8.642;2022-08-21T04:15:38;26.60;42.90
16404;DHT22;8311;50.158;8.642;2022-08-21T04:18:31;26.60;42.90
16404;DHT22;8311;50.158;8.642;2022-08-21T04:21:24;26.60;43.00
16404;DHT22;8311;50.158;8.642;2022-08-21T04:24:18;26.60;42.90
16404;DHT22;8311;50.158;8.642;2022-08-21T04:27:12;26.60;43.00
16404;DHT22;8311;50.158;8.642;2022-08-21T04:30:06;26.60;43.00
16404;DHT22;8311;50.158;8.642;2022-08-21T04:33:02;26.60;43.00
16404;DHT22;8311;50.158;8.642;2022-08-21T04:35:56;26.60;43.00
16404;DHT22;8311;50.158;8.642;2022-08-21T04:38:49;26.60;43.00
16404;DHT22;8311;50.158;8.642;2022-08-21T04:41:43;26.60;43.10
16404;DHT22;8311;50.158;8.642;2022-08-21T04:44:36;26.60;43.00
16404;DHT22;8311;50.158;8.642;2022-08-21T04:47:29;26.50;43.00
16404;DHT22;8311;50.158;8.642;2022-08-21T04:50:47;26.60;43.10
16404;DHT22;8311;50.158;8.642;2022-08-21T04:53:45;26.60;43.00
16404;DHT22;8311;50.158;8.642;2022-08-21T04:56:42;26.50;43.00
16404;DHT22;8311;50.158;8.642;2022-08-21T04:59:40;26.50;42.90
16404;DHT22;8311;50.158;8.642;2022-08-21T05:02:35;26.50;42.90
16404;DHT22;8311;50.158;8.642;2022-08-21T05:05:29;26.50;42.90
16404;DHT22;8311;50.158;8.642;2022-08-21T05:08:25;26.50;42.90
16404;DHT22;8311;50.158;8.642;2022-08-21T05:11:19;26.50;42.90
16404;DHT22;8311;50.158;8.642;2022-08-21T05:14:16;26.50;42.90
16404;DHT22;8311;50.158;8.642;2022-08-21T05:17:09;26.50;42.90
16404;DHT22;8311;50.158;8.642;2022-08-21T05:20:04;26.50;42.90
16404;DHT22;8311;50.158;8.642;2022-08-21T05:22:57;26.50;42.90
16404;DHT22;8311;50.158;8.642;2022-08-21T05:25:52;26.50;42.90
16404;DHT22;8311;50.158;8.642;2022-08-21T05:28:46;26.50;43.00
16404;DHT22;8311;50.158;8.642;2022-08-21T05:31:40;26.50;42.90
16404;DHT22;8311;50.158;8.642;2022-08-21T05:34:33;26.50;42.90
16404;DHT22;8311;50.158;8.642;2022-08-21T05:37:27;26.50;42.90
16404;DHT22;8311;50.158;8.642;2022-08-21T05:40:20;26.50;43.00
16404;DHT22;8311;50.158;8.642;2022-08-21T05:43:15;26.50;43.00
16404;DHT22;8311;50.158;8.642;2022-08-21T05:46:09;26.50;43.00
16404;DHT22;8311;50.158;8.642;2022-08-21T05:49:02;26.50;43.20
16404;DHT22;8311;50.158;8.642;2022-08-21T05:51:55;26.50;43.00
16404;DHT22;8311;50.158;8.642;2022-08-21T05:54:48;26.50;43.10
16404;DHT22;8311;50.158;8.642;2022-08-21T05:57:42;26.50;43.20
16404;DHT22;8311;50.158;8.642;2022-08-21T06:00:36;26.50;43.00
16404;DHT22;8311;50.158;8.642;2022-08-21T06:03:31;26.50;43.10
16404;DHT22;8311;50.158;8.642;2022-08-21T06:06:25;26.50;43.20
16404;DHT22;8311;50.158;8.642;2022-08-21T06:09:18;26.50;43.00
16404;DHT22;8311;50.158;8.642;2022-08-21T06:12:13;26.50;43.00
16404;DHT22;8311;50.158;8.642;2022-08-21T06:15:07;26.50;43.00
16404;DHT22;8311;50.158;8.642;2022-08-21T06:18:02;26.50;43.00
16404;DHT22;8311;50.158;8.642;2022-08-21T06:20:55;26.40;43.10
16404;DHT22;8311;50.158;8.642;2022-08-21T06:23:51;26.50;43.10
16404;DHT22;8311;50.158;8.642;2022-08-21T06:26:44;26.40;43.00
16404;DHT22;8311;50.158;8.642;2022-08-21T06:29:38;26.50;43.10
16404;DHT22;8311;50.158;8.642;2022-08-21T06:32:35;26.50;43.20
16404;DHT22;8311;50.158;8.642;2022-08-21T06:35:30;26.50;43.10
16404;DHT22;8311;50.158;8.642;2022-08-21T06:38:23;26.50;43.10
16404;DHT22;8311;50.158;8.642;2022-08-21T06:41:17;26.50;43.10
16404;DHT22;8311;50.158;8.642;2022-08-21T06:44:17;26.50;43.20
16404;DHT22;8311;50.158;8.642;2022-08-21T06:47:11;26.50;43.90
16404;DHT22;8311;50.158;8.642;2022-08-21T06:50:05;26.50;43.20
16404;DHT22;8311;50.158;8.642;2022-08-21T06:53:04;26.50;43.50
16404;DHT22;8311;50.158;8.642;2022-08-21T06:55:57;26.50;43.80
16404;DHT22;8311;50.158;8.642;2022-08-21T06:58:50;26.50;43.80
16404;DHT22;8311;50.158;8.642;2022-08-21T07:01:43;26.50;43.90
16404;DHT22;8311;50.158;8.642;2022-08-21T07:04:38;26.50;44.60
16404;DHT22;8311;50.158;8.642;2022-08-21T07:07:31;26.50;44.00
16404;DHT22;8311;50.158;8.642;2022-08-21T07:10:26;26.50;44.10
16404;DHT22;8311;50.158;8.642;2022-08-21T07:13:20;26.50;44.50
16404;DHT22;8311;50.158;8.642;2022-08-21T07:16:13;26.50;44.60
16404;DHT22;8311;50.158;8.642;2022-08-21T07:19:06;26.50;44.70
16404;DHT22;8311;50.158;8.642;2022-08-21T07:22:01;26.60;44.80
16404;DHT22;8311;50.158;8.642;2022-08-21T07:24:55;26.50;44.90
16404;DHT22;8311;50.158;8.642;2022-08-21T07:27:51;26.50;44.90
16404;DHT22;8311;50.158;8.642;2022-08-21T07:30:44;26.50;44.90
16404;DHT22;8311;50.158;8.642;2022-08-21T07:33:39;26.50;45.00
16404;DHT22;8311;50.158;8.642;2022-08-21T07:36:32;26.60;45.00
16404;DHT22;8311;50.158;8.642;2022-08-21T07:39:25;26.60;44.90
16404;DHT22;8311;50.158;8.642;2022-08-21T07:42:18;26.60;44.90
16404;DHT22;8311;50.158;8.642;2022-08-21T07:45:14;26.60;44.90
16404;DHT22;8311;50.158;8.642;2022-08-21T07:48:07;26.60;44.90
16404;DHT22;8311;50.158;8.642;2022-08-21T07:51:05;26.60;44.80
16404;DHT22;8311;50.158;8.642;2022-08-21T07:53:58;26.60;44.90
16404;DHT22;8311;50.158;8.642;2022-08-21T07:56:52;26.60;44.80
16404;DHT22;8311;50.158;8.642;2022-08-21T07:59:46;26.70;44.80
16404;DHT22;8311;50.158;8.642;2022-08-21T08:02:43;26.70;44.80
16404;DHT22;8311;50.158;8.642;2022-08-21T08:05:36;26.70;44.90
16404;DHT22;8311;50.158;8.642;2022-08-21T08:08:30;26.70;44.90
16404;DHT22;8311;50.158;8.642;2022-08-21T08:11:24;26.70;44.90
16404;DHT22;8311;50.158;8.642;2022-08-21T08:14:17;26.80;44.90
16404;DHT22;8311;50.158;8.642;2022-08-21T08:17:22;26.80;44.80
16404;DHT22;8311;50.158;8.642;2022-08-21T08:20:18;26.80;44.70
16404;DHT22;8311;50.158;8.642;2022-08-21T08:23:12;26.90;44.70
16404;DHT22;8311;50.158;8.642;2022-08-21T08:26:06;26.90;44.90
16404;DHT22;8311;50.158;8.642;2022-08-21T08:29:00;26.90;44.80
16404;DHT22;8311;50.158;8.642;2022-08-21T08:31:53;27.00;44.90
16404;DHT22;8311;50.158;8.642;2022-08-21T08:34:46;27.00;44.70
16404;DHT22;8311;50.158;8.642;2022-08-21T08:37:42;27.00;44.80
16404;DHT22;8311;50.158;8.642;2022-08-21T08:40:47;27.00;44.70
16404;DHT22;8311;50.158;8.642;2022-08-21T08:43:49;27.00;44.80
16404;DHT22;8311;50.158;8.642;2022-08-21T08:46:48;27.00;44.80
16404;DHT22;8311;50.158;8.642;2022-08-21T08:49:49;27.00;44.60
16404;DHT22;8311;50.158;8.642;2022-08-21T08:52:49;27.00;44.60
16404;DHT22;8311;50.158;8.642;2022-08-21T08:55:45;27.10;44.80
16404;DHT22;8311;50.158;8.642;2022-08-21T08:58:41;27.10;44.90
16404;DHT22;8311;50.158;8.642;2022-08-21T09:01:35;27.10;44.60
16404;DHT22;8311;50.158;8.642;2022-08-21T09:04:31;27.20;44.70
16404;DHT22;8311;50.158;8.642;2022-08-21T09:07:31;27.20;44.60
16404;DHT22;8311;50.158;8.642;2022-08-21T09:10:38;27.30;44.70
16404;DHT22;8311;50.158;8.642;2022-08-21T09:13:45;27.30;44.30
16404;DHT22;8311;50.158;8.642;2022-08-21T09:16:44;27.30;44.40
16404;DHT22;8311;50.158;8.642;2022-08-21T09:19:54;27.40;44.00
16404;DHT22;8311;50.158;8.642;2022-08-21T09:23:00;27.40;44.00
16404;DHT22;8311;50.158;8.642;2022-08-21T09:26:04;27.40;44.10
16404;DHT22;8311;50.158;8.642;2022-08-21T09:28:59;27.40;43.80
16404;DHT22;8311;50.158;8.642;2022-08-21T09:31:53;27.50;43.60
16404;DHT22;8311;50.158;8.642;2022-08-21T09:34:57;27.50;43.90
16404;DHT22;8311;50.158;8.642;2022-08-21T09:37:53;27.60;43.80
16404;DHT22;8311;50.158;8.642;2022-08-21T09:40:56;27.60;43.60
16404;DHT22;8311;50.158;8.642;2022-08-21T09:43:54;27.60;43.50
16404;DHT22;8311;50.158;8.642;2022-08-21T09:46:51;27.70;43.40
16404;DHT22;8311;50.158;8.642;2022-08-21T09:49:44;27.70;43.20
16404;DHT22;8311;50.158;8.642;2022-08-21T09:52:45;27.70;42.80
16404;DHT22;8311;50.158;8.642;2022-08-21T09:55:49;27.70;42.80
16404;DHT22;8311;50.158;8.642;2022-08-21T09:59:13;27.70;42.70
16404;DHT22;8311;50.158;8.642;2022-08-21T10:02:23;27.70;42.80
16404;DHT22;8311;50.158;8.642;2022-08-21T10:05:20;27.60;42.80
16404;DHT22;8311;50.158;8.642;2022-08-21T10:08:18;27.60;42.80
16404;DHT22;8311;50.158;8.642;2022-08-21T10:11:14;27.50;42.60
16404;DHT22;8311;50.158;8.642;2022-08-21T10:14:17;27.60;42.70
16404;DHT22;8311;50.158;8.642;2022-08-21T10:17:24;27.60;42.20
16404;DHT22;8311;50.158;8.642;2022-08-21T10:20:23;27.60;42.40
16404;DHT22;8311;50.158;8.642;2022-08-21T10:23:29;27.70;42.50
16404;DHT22;8311;50.158;8.642;2022-08-21T10:26:42;27.70;42.50
16404;DHT22;8311;50.158;8.642;2022-08-21T10:29:47;27.60;42.90
16404;DHT22;8311;50.158;8.642;2022-08-21T10:33:03;27.70;42.80
16404;DHT22;8311;50.158;8.642;2022-08-21T10:36:04;27.70;41.70
16404;DHT22;8311;50.158;8.642;2022-08-21T10:39:08;27.80;42.40
16404;DHT22;8311;50.158;8.642;2022-08-21T10:42:33;27.80;42.00
16404;DHT22;8311;50.158;8.642;2022-08-21T10:45:39;27.80;41.30
16404;DHT22;8311;50.158;8.642;2022-08-21T10:48:37;27.80;41.60
16404;DHT22;8311;50.158;8.642;2022-08-21T10:51:38;27.90;41.60
16404;DHT22;8311;50.158;8.642;2022-08-21T10:54:38;27.90;42.20
16404;DHT22;8311;50.158;8.642;2022-08-21T10:57:40;27.90;42.30
16404;DHT22;8311;50.158;8.642;2022-08-21T11:00:40;27.90;41.50
16404;DHT22;8311;50.158;8.642;2022-08-21T11:03:39;27.90;41.80
16404;DHT22;8311;50.158;8.642;2022-08-21T11:06:34;28.00;41.20
16404;DHT22;8311;50.158;8.642;2022-08-21T11:09:30;27.90;40.50
16404;DHT22;8311;50.158;8.642;2022-08-21T11:12:29;27.90;41.40
16404;DHT22;8311;50.158;8.642;2022-08-21T11:15:31;27.90;41.90
16404;DHT22;8311;50.158;8.642;2022-08-21T11:18:32;28.00;42.00
16404;DHT22;8311;50.158;8.642;2022-08-21T11:21:32;27.90;41.50
16404;DHT22;8311;50.158;8.642;2022-08-21T11:24:30;27.90;41.40
16404;DHT22;8311;50.158;8.642;2022-08-21T11:27:30;28.00;39.80
16404;DHT22;8311;50.158;8.642;2022-08-21T11:30:40;27.90;38.20
16404;DHT22;8311;50.158;8.642;2022-08-21T11:33:50;27.90;39.50
16404;DHT22;8311;50.158;8.642;2022-08-21T11:36:51;27.90;39.10
16404;DHT22;8311;50.158;8.642;2022-08-21T11:39:54;27.80;39.90
16404;DHT22;8311;50.158;8.642;2022-08-21T11:42:57;27.80;40.20
16404;DHT22;8311;50.158;8.642;2022-08-21T11:45:56;27.80;40.30
16404;DHT22;8311;50.158;8.642;2022-08-21T11:49:02;27.80;40.00
16404;DHT22;8311;50.158;8.642;2022-08-21T11:52:07;27.80;40.20
16404;DHT22;8311;50.158;8.642;2022-08-21T11:55:05;27.80;40.60
16404;DHT22;8311;50.158;8.642;2022-08-21T11:58:05;27.80;40.60
16404;DHT22;8311;50.158;8.642;2022-08-21T12:01:05;27.80;40.70
16404;DHT22;8311;50.158;8.642;2022-08-21T12:04:03;27.80;40.40
16404;DHT22;8311;50.158;8.642;2022-08-21T12:07:10;27.80;40.80
16404;DHT22;8311;50.158;8.642;2022-08-21T12:10:08;27.70;40.30
16404;DHT22;8311;50.158;8.642;2022-08-21T12:13:08;27.80;40.20
16404;DHT22;8311;50.158;8.642;2022-08-21T12:16:09;27.80;39.90
16404;DHT22;8311;50.158;8.642;2022-08-21T12:19:06;27.80;39.70
16404;DHT22;8311;50.158;8.642;2022-08-21T12:22:09;27.80;39.90
16404;DHT22;8311;50.158;8.642;2022-08-21T12:25:05;27.80;39.60
16404;DHT22;8311;50.158;8.642;2022-08-21T12:28:06;27.80;40.20
16404;DHT22;8311;50.158;8.642;2022-08-21T12:31:00;27.80;39.90
16404;DHT22;8311;50.158;8.642;2022-08-21T12:33:57;27.80;40.30
16404;DHT22;8311;50.158;8.642;2022-08-21T12:36:59;27.70;39.60
16404;DHT22;8311;50.158;8.642;2022-08-21T12:39:54;27.80;39.70
16404;DHT22;8311;50.158;8.642;2022-08-21T12:42:50;27.80;39.70
16404;DHT22;8311;50.158;8.642;2022-08-21T12:45:50;27.70;39.40
16404;DHT22;8311;50.158;8.642;2022-08-21T12:48:48;27.70;39.60
16404;DHT22;8311;50.158;8.642;2022-08-21T12:51:50;27.70;40.20
16404;DHT22;8311;50.158;8.642;2022-08-21T12:54:48;27.70;40.50
16404;DHT22;8311;50.158;8.642;2022-08-21T12:57:42;27.70;40.40
16404;DHT22;8311;50.158;8.642;2022-08-21T13:00:34;27.70;40.20
16404;DHT22;8311;50.158;8.642;2022-08-21T13:03:27;27.70;40.40
16404;DHT22;8311;50.158;8.642;2022-08-21T13:06:21;27.70;40.60
16404;DHT22;8311;50.158;8.642;2022-08-21T13:09:23;27.60;40.40
16404;DHT22;8311;50.158;8.642;2022-08-21T13:12:21;27.60;40.40
16404;DHT22;8311;50.158;8.642;2022-08-21T13:15:25;27.70;40.40
16404;DHT22;8311;50.158;8.642;2022-08-21T13:18:28;27.70;40.70
16404;DHT22;8311;50.158;8.642;2022-08-21T13:21:28;27.60;40.10
16404;DHT22;8311;50.158;8.642;2022-08-21T13:24:23;27.70;40.80
16404;DHT22;8311;50.158;8.642;2022-08-21T13:27:35;27.70;40.80
16404;DHT22;8311;50.158;8.642;2022-08-21T13:30:29;27.70;40.50
16404;DHT22;8311;50.158;8.642;2022-08-21T13:33:25;27.70;40.80
16404;DHT22;8311;50.158;8.642;2022-08-21T13:36:32;27.60;40.60
16404;DHT22;8311;50.158;8.642;2022-08-21T13:39:28;27.60;40.70
16404;DHT22;8311;50.158;8.642;2022-08-21T13:42:22;27.60;40.80
16404;DHT22;8311;50.158;8.642;2022-08-21T13:45:23;27.60;41.20
16404;DHT22;8311;50.158;8.642;2022-08-21T13:48:17;27.60;41.00
16404;DHT22;8311;50.158;8.642;2022-08-21T13:51:11;27.60;40.90
16404;DHT22;8311;50.158;8.642;2022-08-21T13:54:14;27.60;41.10
16404;DHT22;8311;50.158;8.642;2022-08-21T13:57:16;27.60;40.80
16404;DHT22;8311;50.158;8.642;2022-08-21T14:00:12;27.50;40.90
16404;DHT22;8311;50.158;8.642;2022-08-21T14:03:09;27.60;41.50
16404;DHT22;8311;50.158;8.642;2022-08-21T14:06:11;27.60;41.70
16404;DHT22;8311;50.158;8.642;2022-08-21T14:09:10;27.60;41.20
16404;DHT22;8311;50.158;8.642;2022-08-21T14:12:15;27.60;41.40
16404;DHT22;8311;50.158;8.642;2022-08-21T14:15:18;27.60;41.70
16404;DHT22;8311;50.158;8.642;2022-08-21T14:18:16;27.60;41.40
16404;DHT22;8311;50.158;8.642;2022-08-21T14:21:09;27.60;41.30
16404;DHT22;8311;50.158;8.642;2022-08-21T14:24:07;27.50;41.30
16404;DHT22;8311;50.158;8.642;2022-08-21T14:27:03;27.50;41.10
16404;DHT22;8311;50.158;8.642;2022-08-21T14:30:03;27.50;40.90
16404;DHT22;8311;50.158;8.642;2022-08-21T14:33:01;27.50;41.20
16404;DHT22;8311;50.158;8.642;2022-08-21T14:35:57;27.50;41.20
16404;DHT22;8311;50.158;8.642;2022-08-21T14:38:50;27.50;41.40
16404;DHT22;8311;50.158;8.642;2022-08-21T14:41:44;27.50;40.90
16404;DHT22;8311;50.158;8.642;2022-08-21T14:44:40;27.50;40.70
16404;DHT22;8311;50.158;8.642;2022-08-21T14:47:33;27.50;42.10
16404;DHT22;8311;50.158;8.642;2022-08-21T14:50:29;27.50;40.70
16404;DHT22;8311;50.158;8.642;2022-08-21T14:53:23;27.50;40.60
16404;DHT22;8311;50.158;8.642;2022-08-21T14:56:16;27.50;38.70
16404;DHT22;8311;50.158;8.642;2022-08-21T14:59:10;27.50;39.90
16404;DHT22;8311;50.158;8.642;2022-08-21T15:02:04;27.50;40.20
16404;DHT22;8311;50.158;8.642;2022-08-21T15:04:58;27.50;40.40
16404;DHT22;8311;50.158;8.642;2022-08-21T15:07:51;27.40;39.80
16404;DHT22;8311;50.158;8.642;2022-08-21T15:10:45;27.40;40.10
16404;DHT22;8311;50.158;8.642;2022-08-21T15:14:01;27.40;40.10
16404;DHT22;8311;50.158;8.642;2022-08-21T15:16:56;27.40;40.00
16404;DHT22;8311;50.158;8.642;2022-08-21T15:19:50;27.40;40.10
16404;DHT22;8311;50.158;8.642;2022-08-21T15:22:43;27.40;40.10
16404;DHT22;8311;50.158;8.642;2022-08-21T15:25:41;27.40;40.00
16404;DHT22;8311;50.158;8.642;2022-08-21T15:28:35;27.40;39.90
16404;DHT22;8311;50.158;8.642;2022-08-21T15:31:29;27.40;39.90
16404;DHT22;8311;50.158;8.642;2022-08-21T15:34:24;27.40;40.10
16404;DHT22;8311;50.158;8.642;2022-08-21T15:37:19;27.40;40.00
16404;DHT22;8311;50.158;8.642;2022-08-21T15:40:13;27.40;39.90
16404;DHT22;8311;50.158;8.642;2022-08-21T15:43:11;27.40;39.70
16404;DHT22;8311;50.158;8.642;2022-08-21T15:46:12;27.40;39.70
16404;DHT22;8311;50.158;8.642;2022-08-21T15:49:07;27.40;40.20
16404;DHT22;8311;50.158;8.642;2022-08-21T15:52:01;27.40;40.30
16404;DHT22;8311;50.158;8.642;2022-08-21T15:54:55;27.30;40.30
16404;DHT22;8311;50.158;8.642;2022-08-21T15:57:49;27.30;40.20
16404;DHT22;8311;50.158;8.642;2022-08-21T16:00:48;27.30;40.40
16404;DHT22;8311;50.158;8.642;2022-08-21T16:03:47;27.30;40.30
16404;DHT22;8311;50.158;8.642;2022-08-21T16:06:40;27.30;40.30
16404;DHT22;8311;50.158;8.642;2022-08-21T16:09:48;27.30;40.50
16404;DHT22;8311;50.158;8.642;2022-08-21T16:12:44;27.30;40.70
16404;DHT22;8311;50.158;8.642;2022-08-21T16:15:38;27.30;40.90
16404;DHT22;8311;50.158;8.642;2022-08-21T16:18:31;27.20;41.00
16404;DHT22;8311;50.158;8.642;2022-08-21T16:21:26;27.30;41.00
16404;DHT22;8311;50.158;8.642;2022-08-21T16:24:20;27.30;40.90
16404;DHT22;8311;50.158;8.642;2022-08-21T16:27:13;27.30;41.20
16404;DHT22;8311;50.158;8.642;2022-08-21T16:30:10;27.30;41.20
16404;DHT22;8311;50.158;8.642;2022-08-21T16:33:05;27.30;41.20
16404;DHT22;8311;50.158;8.642;2022-08-21T16:36:00;27.30;41.30
16404;DHT22;8311;50.158;8.642;2022-08-21T16:39:00;27.30;41.30
16404;DHT22;8311;50.158;8.642;2022-08-21T16:41:53;27.30;41.40
16404;DHT22;8311;50.158;8.642;2022-08-21T16:44:47;27.30;41.40
16404;DHT22;8311;50.158;8.642;2022-08-21T16:47:42;27.20;41.40
16404;DHT22;8311;50.158;8.642;2022-08-21T16:50:36;27.20;41.40
16404;DHT22;8311;50.158;8.642;2022-08-21T16:53:30;27.20;42.10
16404;DHT22;8311;50.158;8.642;2022-08-21T16:56:24;27.20;41.60
16404;DHT22;8311;50.158;8.642;2022-08-21T16:59:18;27.20;41.60
16404;DHT22;8311;50.158;8.642;2022-08-21T17:02:20;27.20;41.60
16404;DHT22;8311;50.158;8.642;2022-08-21T17:05:16;27.20;41.60
16404;DHT22;8311;50.158;8.642;2022-08-21T17:08:09;27.20;42.30
16404;DHT22;8311;50.158;8.642;2022-08-21T17:11:05;27.20;41.60
16404;DHT22;8311;50.158;8.642;2022-08-21T17:14:03;27.20;41.60
16404;DHT22;8311;50.158;8.642;2022-08-21T17:16:56;27.20;41.70
16404;DHT22;8311;50.158;8.642;2022-08-21T17:19:50;27.20;41.70
16404;DHT22;8311;50.158;8.642;2022-08-21T17:22:44;27.20;41.70
16404;DHT22;8311;50.158;8.642;2022-08-21T17:25:38;27.20;41.80
16404;DHT22;8311;50.158;8.642;2022-08-21T17:28:34;27.20;41.80
16404;DHT22;8311;50.158;8.642;2022-08-21T17:31:30;27.20;41.80
16404;DHT22;8311;50.158;8.642;2022-08-21T17:34:23;27.20;41.80
16404;DHT22;8311;50.158;8.642;2022-08-21T17:37:23;27.20;41.80
16404;DHT22;8311;50.158;8.642;2022-08-21T17:40:20;27.20;41.90
16404;DHT22;8311;50.158;8.642;2022-08-21T17:43:14;27.20;41.80
16404;DHT22;8311;50.158;8.642;2022-08-21T17:46:09;27.20;41.80
16404;DHT22;8311;50.158;8.642;2022-08-21T17:49:06;27.20;42.50
16404;DHT22;8311;50.158;8.642;2022-08-21T17:51:58;27.20;41.90
16404;DHT22;8311;50.158;8.642;2022-08-21T17:54:51;27.20;41.90
16404;DHT22;8311;50.158;8.642;2022-08-21T17:57:46;27.20;42.00
16404;DHT22;8311;50.158;8.642;2022-08-21T18:00:40;27.20;42.00
16404;DHT22;8311;50.158;8.642;2022-08-21T18:03:33;27.20;42.00
16404;DHT22;8311;50.158;8.642;2022-08-21T18:06:30;27.10;42.00
16404;DHT22;8311;50.158;8.642;2022-08-21T18:09:24;27.20;42.10
16404;DHT22;8311;50.158;8.642;2022-08-21T18:12:19;27.10;42.00
16404;DHT22;8311;50.158;8.642;2022-08-21T18:15:14;27.10;42.00
16404;DHT22;8311;50.158;8.642;2022-08-21T18:18:08;27.10;41.70
16404;DHT22;8311;50.158;8.642;2022-08-21T18:21:01;27.10;40.40
16404;DHT22;8311;50.158;8.642;2022-08-21T18:23:55;27.00;38.70
16404;DHT22;8311;50.158;8.642;2022-08-21T18:26:49;26.90;38.50
16404;DHT22;8311;50.158;8.642;2022-08-21T18:29:43;26.90;38.20
16404;DHT22;8311;50.158;8.642;2022-08-21T18:32:39;26.80;38.00
16404;DHT22;8311;50.158;8.642;2022-08-21T18:35:33;26.80;38.00
16404;DHT22;8311;50.158;8.642;2022-08-21T18:38:25;26.80;38.10
16404;DHT22;8311;50.158;8.642;2022-08-21T18:41:21;26.70;38.10
16404;DHT22;8311;50.158;8.642;2022-08-21T18:44:17;26.70;37.90
16404;DHT22;8311;50.158;8.642;2022-08-21T18:47:14;26.70;38.00
16404;DHT22;8311;50.158;8.642;2022-08-21T18:50:11;26.60;37.80
16404;DHT22;8311;50.158;8.642;2022-08-21T18:53:06;26.60;38.00